x

Southeast Hawaii - 205 Nm Southeast Of Hilo, Hi (51004) Wave Buoy

12:50am - Sat 23rd May 2015 All times are HST. -10 hours from GMT.

  • Sig Wave height 4.3ft
  • Swell Direction
  • Peak Period 14s
  • Average Period 7s
  • Wind
    7mph
  • Sea Temp 78°f
  • Air Temp 77°f
  • Sea Pressure 1015.5mb
  • Southeast Hawaii - 205 Nm Southeast Of Hilo, Hi
  • Southeast Hawaii - 205 Nm Southeast Of Hilo, Hi

More Historic Weather Station data

Upgrade to MSW Pro to gain access to the past 30 days of data for over 8000 Wavebouys and Weather Stations around the globe.

Join Pro

Comparision Forecast

View Surf forecast
   
Sat 05/23 12:50am 4.5ft 14s 7s 7
mph
1015.5mb 78f 77f
Fri 05/22 11:50pm 4.5ft 8s 7s 4 7 mph 1016mb 79f 77f
10:50pm 4.5ft 14s 7s 7
mph
1016.4mb 79f 77f
9:50pm 4.5ft 14s 8s 7 9 mph 1016.2mb 79f 77f
8:50pm 4.5ft 8s 7s 4 7 mph 1016mb 79f 77f
7:50pm 4.5ft 8s 7s 4 7 mph 1015.5mb 80f 77f
6:50pm 5ft 14s 7s 4 7 mph 1014.9mb 80f 77f
5:50pm 4.5ft 8s 7s 4 7 mph 1014.3mb 79f 78f
4:50pm 4.5ft 14s 7s 7 9 mph 1014mb 80f 78f
3:50pm 4.5ft 8s 7s 4 7 mph 1013.7mb 81f 78f
2:50pm 4.5ft 8s 7s 4
mph
1014.1mb 81f 77f
1:50pm 4.5ft 15s 7s 4 7 mph 1014.4mb 82f 77f
12:50pm 4.5ft 8s 7s 2 4 mph 1014.8mb 83f 77f
11:50am 4.5ft 8s 8s 2 7 mph 1015.3mb 81f 77f
10:50am 4.5ft 8s 7s 4 7 mph 1015.7mb 80f 77f
9:50am 5ft 8s 7s  -  2 mph 1015.6mb 79f 77f
8:50am 5ft 8s 7s 2
mph
1015.3mb 78f 77f
7:50am 5ft 8s 7s 2 4 mph 1014.9mb 78f 77f
6:50am 4.5ft 8s 7s 2 4 mph 1014.3mb 78f 77f
5:50am 5ft 8s 7s 4 7 mph 1013.7mb 78f 75f
4:50am 4.5ft 15s 7s 4
mph
1013.4mb 78f 76f
3:50am 4.5ft 8s 7s 4 7 mph 1013.2mb 78f 76f
2:50am 4.5ft 8s 7s 4 7 mph 1013.5mb 78f 76f
1:50am 4.5ft 8s 7s 4 7 mph 1013.8mb 78f 76f
12:50am 5ft 15s 7s 7 9 mph 1014.2mb 78f 76f
Thu 05/21 11:50pm 5ft 8s 7s 7 9 mph 1014.8mb 78f 76f
10:50pm 5ft 8s 7s 7 9 mph 1015.4mb 78f 76f
9:50pm 5ft 8s 7s 7 9 mph 1015.5mb 78f 76f
8:50pm 5ft 7s 7s 7 9 mph 1015.2mb 78f 76f
7:50pm 5.5ft 8s 7s 7 11 mph 1014.6mb 78f 77f
6:50pm 5ft 8s 7s 4 7 mph 1014mb 78f 77f
5:50pm 5ft 8s 6s 7 9 mph 1013.1mb 79f 77f
4:50pm 5.5ft 16s 7s 11
mph
1012.4mb 79f 77f
3:50pm 5ft 16s 7s 11 13 mph 1012.3mb 79f 77f
2:50pm 5ft 7s 6s 9 11 mph 1012.9mb 79f 76f
1:50pm 5ft 8s 7s 9 11 mph 1013.4mb 79f 77f
12:50pm 5ft 8s 7s 9 11 mph 1014mb 79f 77f
11:50am 5ft 8s 6s 9 11 mph 1014.2mb 78f 76f
10:50am 5ft 9s 6s 11 13 mph 1014.7mb 78f 77f
9:50am 5.5ft 8s 6s 11 13 mph 1015.2mb 78f 77f
8:50am 5.5ft 8s 6s 11 16 mph 1015.1mb 78f 77f
7:50am 5.5ft 9s 6s 13 16 mph 1014.9mb 78f 76f
6:50am 5.5ft 8s 6s 16 18 mph 1014.2mb 78f 76f
5:50am 5.5ft 8s 6s 16 20 mph 1013.6mb 78f 75f
4:50am 5.5ft 9s 6s 16 18 mph 1013.5mb 78f 75f
3:50am 5.5ft 7s 6s 9 13 mph 1013.6mb 78f 74f
2:50am 5.5ft 9s 6s 13 16 mph 1013.9mb 78f 75f
1:50am 6ft 8s 6s 13 18 mph 1014.6mb 78f 75f
12:50am 6ft 9s 6s 11 16 mph 1015.4mb 78f 76f
Wed 05/20 11:50pm 6ft 8s 6s 11 16 mph 1016.2mb 78f 76f
10:50pm 5ft 8s 6s 13 16 mph 1016.6mb 78f 76f
9:50pm 6ft 9s 6s 13 18 mph 1016.8mb 78f 76f
8:50pm 6ft 12s 6s 16 18 mph 1016.6mb 78f 76f
7:50pm 5.5ft 8s 6s 13 18 mph 1016.4mb 78f 76f
6:50pm 6ft 8s 6s 16 18 mph 1015.5mb 78f 76f
5:50pm 6ft 8s 6s 16 18 mph 1015.3mb 78f 76f
4:50pm 6ft 8s 6s 13 18 mph 1015.4mb 78f 77f
3:50pm 6ft 8s 6s 13 16 mph 1015.4mb 78f 77f
2:50pm 5.5ft 7s 6s 16 18 mph 1015.7mb 78f 77f
1:50pm 6ft 8s 6s 13 18 mph 1016.3mb 78f 77f
12:50pm 6ft 8s 6s 13 16 mph 1016.7mb 78f 76f
11:50am 6ft 8s 6s 13 16 mph 1017.7mb 78f 76f
10:50am 6ft 8s 6s 13 16 mph 1018.3mb 78f 76f
9:50am 6ft 8s 6s 13 18 mph 1018.6mb 78f 77f
8:50am 6ft 9s 6s 16 18 mph 1018.5mb 78f 76f
7:50am 6ft 9s 6s 16 20 mph 1017.9mb 78f 76f
6:50am 7ft 8s 6s 16 20 mph 1017.7mb 78f 76f
5:50am 6.5ft 8s 6s 18 20 mph 1017.1mb 78f 76f
4:50am 7ft 8s 6s 16 20 mph 1017.1mb 78f 76f
3:50am 7ft 8s 6s 18 20 mph 1016.8mb 78f 76f
2:50am 7ft 8s 6s 16 18 mph 1017.2mb 78f 76f
1:50am 6.5ft 8s 6s 18 20 mph 1017.6mb 78f 76f
12:50am 6.5ft 8s 6s 20 22 mph 1018.1mb 78f 76f
Tue 05/19 11:50pm 6.5ft 8s 6s 20 25 mph 1018.8mb 78f 76f
10:50pm 6.5ft 8s 6s 20 25 mph 1019.2mb 78f 76f
9:50pm 6.5ft 8s 6s 22 25 mph 1018.7mb 78f 76f
8:50pm 6.5ft 8s 6s 20 22 mph 1018.6mb 78f 76f
7:50pm 6.5ft 8s 6s 20 25 mph 1017.7mb 78f 76f
6:50pm 7ft 8s 6s 22 27 mph 1017.1mb 78f 76f
5:50pm 7ft 8s 6s 20 22 mph 1016.9mb 78f 76f
4:50pm 7ft 8s 6s 20 25 mph 1016.5mb 78f 77f
3:50pm 7ft 8s 6s 18 22 mph 1016.8mb 78f 77f
2:50pm 7ft 8s 6s 18 22 mph 1016.8mb 78f 77f
1:50pm 7ft 8s 6s 18 20 mph 1017.3mb 78f 77f
12:50pm 7ft 9s 6s 20 25 mph 1017.9mb 77f 77f